プライア国際空港の過去48時間の天気

プライア国際空港 (Praia International Airport)

現在時刻: 9/22 15:27 -01 (9/22 16:27 UTC) 以下の時間は現地時間です。

過去48時間のMETAR気象情報
時間 風向 風速(m/s) 視程 気温(℃) 湿度(%) 気圧(hPa) 天気現象
22 15:00 東北東 5 10km以上 30 70 1014
22 14:00 東北東 6 10km以上 30 70 1015
22 13:00 東北東 5 10km以上 30 75 1016
22 12:00 東北東 5 10km以上 30 75 1016
22 11:00 東北東 5 10km以上 30 75 1017
22 10:00 東北東 5 10km以上 29 79 1017
22 09:00 北東 3 10km以上 29 79 1017
22 08:00 北東 3 10km以上 27 89 1016
22 07:00 北東 3 10km以上 25 94 1015
22 06:00 北東 3 10km以上 25 94 1015
22 05:00 北東 2 10km以上 26 89 1014
22 04:00 北北東 2 10km以上 25 94 1014
22 03:00 北北東 2 10km以上 25 94 1014
22 02:00 北北東 3 10km以上 25 89 1014
22 01:00 3 10km以上 26 84 1014
22 00:00 2 10km以上 26 84 1014
21 23:00 北北東 2 10km以上 26 89 1015
21 22:00 北東 1 10km以上 27 84 1015
21 21:00 西南西 1 10km以上 27 84 1014
21 20:00 西南西 3 10km以上 27 84 1014
21 19:00 南西 3 10km以上 27 84 1014
21 18:00 1 10km以上 28 79 1014
21 17:00 3 10km以上 29 79 1014
21 16:00 東南東 3 10km以上 29 79 1014
21 15:00 4 10km以上 30 70 1014
21 14:00 5 10km以上 30 75 1015
21 13:00 6 10km以上 29 79 1015
21 12:00 6 10km以上 30 70 1015
21 11:00 北東 4 10km以上 30 70 1015
21 10:00 東北東 5 10km以上 29 79 1015
21 09:00 - - 10km以上 - - -
21 08:00 北北東 3 10km以上 26 89 1015
21 07:00 北北東 3 10km以上 25 89 1014
21 06:00 北西 2 10km以上 25 89 1013
21 05:00 - - 10km以上 - - -
21 04:00 - - 10km以上 - - -
21 03:00 - - 10km以上 - - -
21 02:00 - - 10km以上 - - -
21 01:00 西北西 2 10km以上 26 79 -
21 00:00 北西 2 10km以上 26 79 -
20 22:00 2 10km以上 27 74 -
20 21:00 2 10km以上 27 70 -
20 18:00 4 10km以上 28 79 1012
20 17:00 4 10km以上 28 79 1012
20 16:00 - - 10km以上 - - -
GVNP 221600Z 07010KT 9999 FEW016TCU 30/24 Q1014 NOSIG
GVNP 221500Z 07011KT 9999 SCT016TCU 30/24 Q1015 NOSIG
GVNP 221400Z 07010KT 9999 SCT014 30/25 Q1016 NOSIG
GVNP 221300Z 06010KT 9999 SCT014 30/25 Q1016 NOSIG
GVNP 221200Z 07010KT 9999 SCT014 30/25 Q1017 NOSIG
GVNP 221100Z 07010KT 9999 FEW014 29/25 Q1017 NOSIG
GVNP 221000Z 04005KT 9999 SCT014 29/25 Q1017 NOSIG
GVNP 220900Z 04005KT 9999 SCT014 27/25 Q1016 NOSIG
GVNP 220800Z 04006KT 9999 FEW014 25/24 Q1015 NOSIG
GVNP 220700Z 04006KT 9999 FEW014 25/24 Q1015 NOSIG
GVNP 220600Z 04003KT 9999 FEW014 26/24 Q1014 NOSIG
GVNP 220500Z 03004KT 9999 FEW014 25/24 Q1014 NOSIG
GVNP 220400Z 02004KT 9999 FEW014 25/24 Q1014 NOSIG
GVNP 220300Z 03005KT 9999 FEW015 25/23 Q1014 NOSIG
GVNP 220200Z 35005KT 9999 FEW015 26/23 Q1014 NOSIG
GVNP 220100Z 01004KT 9999 FEW015 26/23 Q1014 NOSIG
GVNP 220000Z 02004KT 9999 FEW015 26/24 Q1015 NOSIG
GVNP 212300Z 05002KT 9999 FEW015 27/24 Q1015 NOSIG
GVNP 212200Z 24002KT 9999 FEW015 27/24 Q1014 NOSIG
GVNP 212100Z 24005KT 9999 FEW015 SCT200 27/24 Q1014 NOSIG
GVNP 212000Z 22005KT CAVOK 27/24 Q1014 NOSIG
GVNP 211900Z 10002KT 9999 FEW015 BKN200 28/24 Q1014 NOSIG
GVNP 211800Z 10006KT 9999 SCT015TCU 29/25 Q1014 NOSIG
GVNP 211700Z 12006KT 9999 FEW015TCU 29/25 Q1014 NOSIG
GVNP 211600Z 09007KT 9999 SCT015TCU 30/24 Q1014 NOSIG
GVNP 211500Z 09009KT 9999 SCT015TCU 30/25 Q1015 NOSIG
GVNP 211400Z 09011KT 9999 FEW016TCU SCT100 29/25 Q1015 NOSIG
GVNP 211300Z 08011KT 9999 FEW016TCU SCT100 30/24 Q1015 NOSIG
GVNP 211200Z 05008KT 9999 SCT016 BKN100 30/24 Q1015 NOSIG
GVNP 211100Z 06009KT 9999 SCT016 BKN100 29/25 Q1015 NOSIG
GVNP 211000Z /////KT 9999 FEW016 BKN100 ///// Q//// NOSIG
GVNP 210900Z 02005KT 9999 FEW015 BKN100 26/24 Q1015 NOSIG
GVNP 210800Z 02005KT 9999 FEW014 BKN100 25/23 Q1014 NOSIG
GVNP 210700Z 32004KT 9999 FEW015 25/23 Q1013 NOSIG
GVNP 210600Z /////KT 9999 FEW015 ///// Q//// NOSIG
GVNP 210500Z /////KT 9999 FEW015 ///// Q//// NOSIG
GVNP 210400Z /////KT 9999 FEW015 ///// Q//// NOSIG
GVNP 210300Z /////KT 9999 FEW015 ///// Q//// NOSIG
GVNP 210200Z 30004KT 9999 FEW015 SCT200 26/22 Q//// NOSIG
GVNP 210100Z 32004KT 9999 FEW015 BKN200 26/22 Q//// NOSIG
GVNP 202300Z 36004KT 9999 FEW015 BKN200 27/22 Q//// NOSIG
GVNP 202200Z 35004KT 9999 FEW015 BKN200 27/21 Q//// NOSIG
GVNP 201900Z 09007KT 9999 FEW015 BKN200 28/24 Q1012 NOSIG
GVNP 201800Z 08007KT 9999 FEW015 BKN200 28/24 Q1012 NOSIG
GVNP 201700Z /////KT 9999 FEW015 BKN200 ///// Q//// NOSIG